sensor_id;sensor_type;location;lat;lon;timestamp;pressure;altitude;pressure_sealevel;temperature;humidity
33554;BME280;19885;42.208;24.952;2022-07-23T00:04:05;99960.97;;;25.20;44.59
33554;BME280;19885;42.208;24.952;2022-07-23T00:06:31;99963.88;;;25.15;45.00
33554;BME280;19885;42.208;24.952;2022-07-23T00:08:57;99949.53;;;25.01;45.21
33554;BME280;19885;42.208;24.952;2022-07-23T00:11:22;99944.91;;;25.04;45.32
33554;BME280;19885;42.208;24.952;2022-07-23T00:13:48;99945.88;;;24.49;46.71
33554;BME280;19885;42.208;24.952;2022-07-23T00:16:14;99961.41;;;24.22;47.62
33554;BME280;19885;42.208;24.952;2022-07-23T00:18:40;99979.06;;;23.86;48.70
33554;BME280;19885;42.208;24.952;2022-07-23T00:21:07;99979.94;;;23.86;48.69
33554;BME280;19885;42.208;24.952;2022-07-23T00:23:32;99973.06;;;23.81;48.70
33554;BME280;19885;42.208;24.952;2022-07-23T00:25:58;99978.44;;;23.99;48.20
33554;BME280;19885;42.208;24.952;2022-07-23T00:28:24;99973.94;;;24.20;49.91
33554;BME280;19885;42.208;24.952;2022-07-23T00:30:50;99970.91;;;24.09;50.11
33554;BME280;19885;42.208;24.952;2022-07-23T00:33:15;99973.41;;;24.31;47.76
33554;BME280;19885;42.208;24.952;2022-07-23T00:35:41;99974.63;;;24.05;48.16
33554;BME280;19885;42.208;24.952;2022-07-23T00:38:11;99965.69;;;24.07;48.03
33554;BME280;19885;42.208;24.952;2022-07-23T00:40:37;99964.25;;;23.99;49.07
33554;BME280;19885;42.208;24.952;2022-07-23T00:43:04;99980.22;;;23.99;50.14
33554;BME280;19885;42.208;24.952;2022-07-23T00:45:30;99978.69;;;24.14;50.32
33554;BME280;19885;42.208;24.952;2022-07-23T00:47:57;99982.22;;;24.33;49.87
33554;BME280;19885;42.208;24.952;2022-07-23T00:50:23;99985.69;;;24.35;49.54
33554;BME280;19885;42.208;24.952;2022-07-23T00:52:49;99984.91;;;24.33;48.67
33554;BME280;19885;42.208;24.952;2022-07-23T00:55:15;99986.91;;;24.28;48.92
33554;BME280;19885;42.208;24.952;2022-07-23T00:57:42;99986.97;;;24.07;48.71
33554;BME280;19885;42.208;24.952;2022-07-23T01:00:11;99982.59;;;24.25;49.36
33554;BME280;19885;42.208;24.952;2022-07-23T01:02:39;99980.00;;;24.24;49.05
33554;BME280;19885;42.208;24.952;2022-07-23T01:05:06;99978.06;;;23.88;49.87
33554;BME280;19885;42.208;24.952;2022-07-23T01:07:33;99942.75;;;23.65;50.28
33554;BME280;19885;42.208;24.952;2022-07-23T01:09:58;99988.19;;;23.00;51.95
33554;BME280;19885;42.208;24.952;2022-07-23T01:12:25;99992.50;;;23.44;51.04
33554;BME280;19885;42.208;24.952;2022-07-23T01:14:55;99980.78;;;23.28;51.60
33554;BME280;19885;42.208;24.952;2022-07-23T01:17:22;99959.75;;;23.42;51.09
33554;BME280;19885;42.208;24.952;2022-07-23T01:19:49;99983.38;;;23.50;52.05
33554;BME280;19885;42.208;24.952;2022-07-23T01:22:18;99985.44;;;23.43;51.96
33554;BME280;19885;42.208;24.952;2022-07-23T01:24:44;99980.84;;;23.67;51.16
33554;BME280;19885;42.208;24.952;2022-07-23T01:27:10;99974.13;;;23.58;52.19
33554;BME280;19885;42.208;24.952;2022-07-23T01:29:38;99975.13;;;23.56;52.89
33554;BME280;19885;42.208;24.952;2022-07-23T01:32:04;99981.31;;;23.56;52.90
33554;BME280;19885;42.208;24.952;2022-07-23T01:34:30;99984.91;;;23.55;53.17
33554;BME280;19885;42.208;24.952;2022-07-23T01:36:56;99992.00;;;23.14;53.46
33554;BME280;19885;42.208;24.952;2022-07-23T01:39:21;99981.88;;;23.02;54.54
33554;BME280;19885;42.208;24.952;2022-07-23T01:41:47;99979.78;;;23.30;54.12
33554;BME280;19885;42.208;24.952;2022-07-23T01:44:13;99978.22;;;23.25;52.75
33554;BME280;19885;42.208;24.952;2022-07-23T01:46:42;99977.94;;;23.31;52.40
33554;BME280;19885;42.208;24.952;2022-07-23T01:49:07;99982.59;;;23.06;52.37
33554;BME280;19885;42.208;24.952;2022-07-23T01:51:33;99977.47;;;23.01;52.68
33554;BME280;19885;42.208;24.952;2022-07-23T01:53:59;99971.03;;;23.07;52.42
33554;BME280;19885;42.208;24.952;2022-07-23T01:56:24;99988.91;;;22.61;53.96
33554;BME280;19885;42.208;24.952;2022-07-23T01:58:50;99955.72;;;22.05;54.97
33554;BME280;19885;42.208;24.952;2022-07-23T02:01:15;99991.63;;;21.92;56.08
33554;BME280;19885;42.208;24.952;2022-07-23T02:03:41;99959.09;;;21.85;55.83
33554;BME280;19885;42.208;24.952;2022-07-23T02:06:07;99978.91;;;22.00;55.75
33554;BME280;19885;42.208;24.952;2022-07-23T02:08:32;99981.66;;;22.20;55.01
33554;BME280;19885;42.208;24.952;2022-07-23T02:10:58;99985.44;;;22.15;55.07
33554;BME280;19885;42.208;24.952;2022-07-23T02:13:24;100000.84;;;22.28;55.34
33554;BME280;19885;42.208;24.952;2022-07-23T02:15:49;99986.72;;;22.26;57.51
33554;BME280;19885;42.208;24.952;2022-07-23T02:18:15;99993.16;;;22.21;57.69
33554;BME280;19885;42.208;24.952;2022-07-23T02:20:41;99994.03;;;22.21;55.72
33554;BME280;19885;42.208;24.952;2022-07-23T02:23:07;99995.72;;;22.22;55.19
33554;BME280;19885;42.208;24.952;2022-07-23T02:25:33;99989.97;;;22.11;55.91
33554;BME280;19885;42.208;24.952;2022-07-23T02:27:59;99988.25;;;21.87;56.35
33554;BME280;19885;42.208;24.952;2022-07-23T02:30:25;99990.50;;;21.97;56.10
33554;BME280;19885;42.208;24.952;2022-07-23T02:32:52;99909.34;;;21.19;56.84
33554;BME280;19885;42.208;24.952;2022-07-23T02:35:18;99973.38;;;21.81;56.52
33554;BME280;19885;42.208;24.952;2022-07-23T02:37:43;99994.25;;;21.92;56.42
33554;BME280;19885;42.208;24.952;2022-07-23T02:40:09;99998.88;;;21.87;56.73
33554;BME280;19885;42.208;24.952;2022-07-23T02:42:35;99999.88;;;21.58;57.54
33554;BME280;19885;42.208;24.952;2022-07-23T02:45:01;99989.56;;;21.51;57.72
33554;BME280;19885;42.208;24.952;2022-07-23T02:47:27;99986.06;;;21.73;58.83
33554;BME280;19885;42.208;24.952;2022-07-23T02:49:57;100007.84;;;21.83;58.32
33554;BME280;19885;42.208;24.952;2022-07-23T02:52:23;99997.19;;;21.60;58.31
33554;BME280;19885;42.208;24.952;2022-07-23T02:54:49;99996.38;;;21.58;59.72
33554;BME280;19885;42.208;24.952;2022-07-23T02:57:14;100005.38;;;21.77;58.28
33554;BME280;19885;42.208;24.952;2022-07-23T02:59:40;100007.84;;;22.06;57.93
33554;BME280;19885;42.208;24.952;2022-07-23T03:02:06;100007.53;;;21.92;58.98
33554;BME280;19885;42.208;24.952;2022-07-23T03:04:32;100002.91;;;22.20;57.81
33554;BME280;19885;42.208;24.952;2022-07-23T03:06:58;100007.97;;;22.26;57.70
33554;BME280;19885;42.208;24.952;2022-07-23T03:09:23;100006.53;;;22.18;57.72
33554;BME280;19885;42.208;24.952;2022-07-23T03:11:49;99962.63;;;21.86;57.78
33554;BME280;19885;42.208;24.952;2022-07-23T03:14:15;100015.25;;;22.21;57.85
33554;BME280;19885;42.208;24.952;2022-07-23T03:16:42;100018.03;;;22.18;58.16
33554;BME280;19885;42.208;24.952;2022-07-23T03:19:07;100028.38;;;21.53;59.49
33554;BME280;19885;42.208;24.952;2022-07-23T03:21:33;100024.19;;;21.71;58.90
33554;BME280;19885;42.208;24.952;2022-07-23T03:24:00;100012.72;;;21.21;58.51
33554;BME280;19885;42.208;24.952;2022-07-23T03:26:26;100024.78;;;21.29;60.04
33554;BME280;19885;42.208;24.952;2022-07-23T03:28:52;100038.25;;;21.23;59.97
33554;BME280;19885;42.208;24.952;2022-07-23T03:31:18;100034.16;;;20.87;59.92
33554;BME280;19885;42.208;24.952;2022-07-23T03:33:43;100033.63;;;21.55;59.07
33554;BME280;19885;42.208;24.952;2022-07-23T03:36:09;100021.56;;;20.94;60.07
33554;BME280;19885;42.208;24.952;2022-07-23T03:38:35;100032.88;;;20.43;61.69
33554;BME280;19885;42.208;24.952;2022-07-23T03:41:01;100018.88;;;20.68;61.68
33554;BME280;19885;42.208;24.952;2022-07-23T03:43:27;100035.34;;;21.56;60.26
33554;BME280;19885;42.208;24.952;2022-07-23T03:45:53;100024.22;;;21.20;59.10
33554;BME280;19885;42.208;24.952;2022-07-23T03:48:21;99993.16;;;20.71;61.00
33554;BME280;19885;42.208;24.952;2022-07-23T03:50:47;100027.59;;;20.71;61.88
33554;BME280;19885;42.208;24.952;2022-07-23T03:53:12;100037.47;;;20.66;62.47
33554;BME280;19885;42.208;24.952;2022-07-23T03:55:38;100025.09;;;20.39;62.58
33554;BME280;19885;42.208;24.952;2022-07-23T03:58:06;100026.22;;;21.13;61.04
33554;BME280;19885;42.208;24.952;2022-07-23T04:00:34;100019.00;;;20.35;62.67
33554;BME280;19885;42.208;24.952;2022-07-23T04:03:00;100038.31;;;20.39;62.42
33554;BME280;19885;42.208;24.952;2022-07-23T04:05:25;100040.00;;;20.41;62.82
33554;BME280;19885;42.208;24.952;2022-07-23T04:07:54;100042.28;;;19.93;64.15
33554;BME280;19885;42.208;24.952;2022-07-23T04:10:20;100037.34;;;20.11;63.84
33554;BME280;19885;42.208;24.952;2022-07-23T04:12:46;100039.72;;;20.50;63.61
33554;BME280;19885;42.208;24.952;2022-07-23T04:15:12;100043.66;;;20.65;63.26
33554;BME280;19885;42.208;24.952;2022-07-23T04:17:37;100040.34;;;20.86;62.78
33554;BME280;19885;42.208;24.952;2022-07-23T04:20:03;100044.44;;;20.69;63.21
33554;BME280;19885;42.208;24.952;2022-07-23T04:22:29;100032.63;;;21.06;61.57
33554;BME280;19885;42.208;24.952;2022-07-23T04:24:55;100031.84;;;21.30;61.28
33554;BME280;19885;42.208;24.952;2022-07-23T04:27:21;100038.16;;;21.51;60.28
33554;BME280;19885;42.208;24.952;2022-07-23T04:29:46;100037.16;;;21.55;60.03
33554;BME280;19885;42.208;24.952;2022-07-23T04:32:12;99981.38;;;21.07;60.50
33554;BME280;19885;42.208;24.952;2022-07-23T04:34:38;100039.97;;;21.24;61.17
33554;BME280;19885;42.208;24.952;2022-07-23T04:37:03;100033.13;;;20.91;62.98
33554;BME280;19885;42.208;24.952;2022-07-23T04:39:29;100039.78;;;21.04;62.11
33554;BME280;19885;42.208;24.952;2022-07-23T04:41:56;100045.63;;;20.86;62.65
33554;BME280;19885;42.208;24.952;2022-07-23T04:44:21;100043.56;;;21.23;61.48
33554;BME280;19885;42.208;24.952;2022-07-23T04:46:47;100037.72;;;21.39;61.37
33554;BME280;19885;42.208;24.952;2022-07-23T04:49:13;100042.28;;;21.60;60.59
33554;BME280;19885;42.208;24.952;2022-07-23T04:51:38;99985.91;;;21.28;59.80
33554;BME280;19885;42.208;24.952;2022-07-23T04:54:04;100027.81;;;21.68;60.52
33554;BME280;19885;42.208;24.952;2022-07-23T04:56:30;100021.97;;;21.83;59.29
33554;BME280;19885;42.208;24.952;2022-07-23T04:58:56;100046.00;;;21.79;59.89
33554;BME280;19885;42.208;24.952;2022-07-23T05:01:21;100044.94;;;22.32;58.97
33554;BME280;19885;42.208;24.952;2022-07-23T05:03:47;100039.16;;;21.73;59.99
33554;BME280;19885;42.208;24.952;2022-07-23T05:06:14;100037.31;;;22.00;60.55
33554;BME280;19885;42.208;24.952;2022-07-23T05:08:40;100045.66;;;21.89;61.41
33554;BME280;19885;42.208;24.952;2022-07-23T05:11:05;100032.63;;;21.82;61.88
33554;BME280;19885;42.208;24.952;2022-07-23T05:13:31;100040.81;;;21.76;60.49
33554;BME280;19885;42.208;24.952;2022-07-23T05:15:57;100046.19;;;21.99;60.88
33554;BME280;19885;42.208;24.952;2022-07-23T05:18:23;100041.91;;;22.41;59.77
33554;BME280;19885;42.208;24.952;2022-07-23T05:20:48;100040.28;;;23.04;58.33
33554;BME280;19885;42.208;24.952;2022-07-23T05:23:14;100041.66;;;22.92;57.00
33554;BME280;19885;42.208;24.952;2022-07-23T05:25:40;100045.09;;;22.51;58.27
33554;BME280;19885;42.208;24.952;2022-07-23T05:28:06;100034.47;;;22.51;58.72
33554;BME280;19885;42.208;24.952;2022-07-23T05:30:31;100039.88;;;22.48;58.29
33554;BME280;19885;42.208;24.952;2022-07-23T05:32:57;100034.41;;;22.52;57.47
33554;BME280;19885;42.208;24.952;2022-07-23T05:35:23;100002.19;;;22.61;57.57
33554;BME280;19885;42.208;24.952;2022-07-23T05:37:49;100037.53;;;23.27;57.09
33554;BME280;19885;42.208;24.952;2022-07-23T05:40:14;100027.53;;;23.54;55.78
33554;BME280;19885;42.208;24.952;2022-07-23T05:42:40;99992.91;;;23.55;54.93
33554;BME280;19885;42.208;24.952;2022-07-23T05:45:10;100033.41;;;24.58;53.75
33554;BME280;19885;42.208;24.952;2022-07-23T05:47:46;100028.06;;;24.95;53.01
33554;BME280;19885;42.208;24.952;2022-07-23T05:50:13;100029.50;;;25.02;52.79
33554;BME280;19885;42.208;24.952;2022-07-23T05:52:40;100037.38;;;24.68;53.47
33554;BME280;19885;42.208;24.952;2022-07-23T05:55:06;100029.69;;;24.81;51.57
33554;BME280;19885;42.208;24.952;2022-07-23T05:57:32;100037.41;;;25.04;51.16
33554;BME280;19885;42.208;24.952;2022-07-23T05:59:58;100025.91;;;24.66;50.54
33554;BME280;19885;42.208;24.952;2022-07-23T06:02:24;100027.88;;;24.44;51.07
33554;BME280;19885;42.208;24.952;2022-07-23T06:04:50;100016.72;;;24.36;50.82
33554;BME280;19885;42.208;24.952;2022-07-23T06:07:16;100002.03;;;24.46;50.39
33554;BME280;19885;42.208;24.952;2022-07-23T06:09:41;100021.91;;;24.76;49.99
33554;BME280;19885;42.208;24.952;2022-07-23T06:12:07;100029.16;;;25.08;51.03
33554;BME280;19885;42.208;24.952;2022-07-23T06:14:33;100020.66;;;25.19;51.11
33554;BME280;19885;42.208;24.952;2022-07-23T06:16:59;100019.59;;;25.04;49.46
33554;BME280;19885;42.208;24.952;2022-07-23T06:19:25;100031.22;;;25.20;50.34
33554;BME280;19885;42.208;24.952;2022-07-23T06:21:51;100022.28;;;25.38;50.22
33554;BME280;19885;42.208;24.952;2022-07-23T06:24:17;100019.53;;;25.40;48.47
33554;BME280;19885;42.208;24.952;2022-07-23T06:26:42;100025.31;;;25.49;49.08
33554;BME280;19885;42.208;24.952;2022-07-23T06:29:08;100021.28;;;25.58;49.57
33554;BME280;19885;42.208;24.952;2022-07-23T06:31:34;100024.38;;;25.51;47.98
33554;BME280;19885;42.208;24.952;2022-07-23T06:34:00;100035.31;;;25.79;47.24
33554;BME280;19885;42.208;24.952;2022-07-23T06:36:26;100030.28;;;25.90;48.00
33554;BME280;19885;42.208;24.952;2022-07-23T06:38:52;100026.31;;;25.97;47.25
33554;BME280;19885;42.208;24.952;2022-07-23T06:41:17;100024.28;;;26.02;48.29
33554;BME280;19885;42.208;24.952;2022-07-23T06:43:43;100020.28;;;26.10;47.32
33554;BME280;19885;42.208;24.952;2022-07-23T06:46:09;100021.75;;;26.16;47.23
33554;BME280;19885;42.208;24.952;2022-07-23T06:48:34;100017.13;;;26.35;47.63
33554;BME280;19885;42.208;24.952;2022-07-23T06:51:02;100018.19;;;26.33;47.26
33554;BME280;19885;42.208;24.952;2022-07-23T06:53:28;100020.59;;;26.37;47.09
33554;BME280;19885;42.208;24.952;2022-07-23T06:55:54;100000.56;;;26.44;47.95
33554;BME280;19885;42.208;24.952;2022-07-23T06:58:19;100010.16;;;27.25;46.59
33554;BME280;19885;42.208;24.952;2022-07-23T07:00:46;100002.34;;;27.36;45.56
33554;BME280;19885;42.208;24.952;2022-07-23T07:03:12;100000.00;;;27.16;45.70
33554;BME280;19885;42.208;24.952;2022-07-23T07:05:38;99991.75;;;27.05;44.65
33554;BME280;19885;42.208;24.952;2022-07-23T07:08:05;100002.53;;;27.33;45.80
33554;BME280;19885;42.208;24.952;2022-07-23T07:10:31;99996.63;;;27.86;43.78
33554;BME280;19885;42.208;24.952;2022-07-23T07:12:57;99992.91;;;27.88;43.62
33554;BME280;19885;42.208;24.952;2022-07-23T07:15:22;99998.66;;;27.82;43.78
33554;BME280;19885;42.208;24.952;2022-07-23T07:17:48;99991.53;;;27.67;43.44
33554;BME280;19885;42.208;24.952;2022-07-23T07:20:13;99988.97;;;27.80;42.85
33554;BME280;19885;42.208;24.952;2022-07-23T07:22:39;100002.28;;;27.95;41.40
33554;BME280;19885;42.208;24.952;2022-07-23T07:25:06;99994.84;;;28.00;43.04
33554;BME280;19885;42.208;24.952;2022-07-23T07:27:32;99989.91;;;28.35;42.17
33554;BME280;19885;42.208;24.952;2022-07-23T07:29:58;99963.19;;;28.48;42.21
33554;BME280;19885;42.208;24.952;2022-07-23T07:32:23;99972.53;;;28.69;42.14
33554;BME280;19885;42.208;24.952;2022-07-23T07:34:49;99983.06;;;28.58;41.29
33554;BME280;19885;42.208;24.952;2022-07-23T07:37:15;99998.22;;;28.73;39.99
33554;BME280;19885;42.208;24.952;2022-07-23T07:39:41;99988.75;;;28.94;41.11
33554;BME280;19885;42.208;24.952;2022-07-23T07:42:06;99988.00;;;29.31;39.89
33554;BME280;19885;42.208;24.952;2022-07-23T07:44:32;99967.41;;;29.57;40.09
33554;BME280;19885;42.208;24.952;2022-07-23T07:46:57;99982.13;;;29.64;39.43
33554;BME280;19885;42.208;24.952;2022-07-23T07:49:25;99979.47;;;29.12;40.97
33554;BME280;19885;42.208;24.952;2022-07-23T07:51:51;99983.38;;;28.94;40.86
33554;BME280;19885;42.208;24.952;2022-07-23T07:54:16;99971.25;;;29.40;40.32
33554;BME280;19885;42.208;24.952;2022-07-23T07:56:42;99973.06;;;29.40;40.71
33554;BME280;19885;42.208;24.952;2022-07-23T07:59:08;99967.00;;;29.76;38.23
33554;BME280;19885;42.208;24.952;2022-07-23T08:01:33;99974.28;;;29.61;38.98
33554;BME280;19885;42.208;24.952;2022-07-23T08:03:59;99945.84;;;29.19;38.57
33554;BME280;19885;42.208;24.952;2022-07-23T08:06:25;99963.75;;;29.83;37.67
33554;BME280;19885;42.208;24.952;2022-07-23T08:08:50;99964.06;;;30.04;38.21
33554;BME280;19885;42.208;24.952;2022-07-23T08:11:16;99961.00;;;29.85;38.24
33554;BME280;19885;42.208;24.952;2022-07-23T08:13:41;99955.00;;;30.17;37.50
33554;BME280;19885;42.208;24.952;2022-07-23T08:16:10;99963.28;;;30.27;38.01
33554;BME280;19885;42.208;24.952;2022-07-23T08:18:35;99954.34;;;30.39;37.20
33554;BME280;19885;42.208;24.952;2022-07-23T08:21:02;99946.06;;;30.89;37.52
33554;BME280;19885;42.208;24.952;2022-07-23T08:23:29;99949.47;;;30.44;37.24
33554;BME280;19885;42.208;24.952;2022-07-23T08:25:55;99938.16;;;30.75;35.70
33554;BME280;19885;42.208;24.952;2022-07-23T08:28:22;99944.66;;;30.60;36.38
33554;BME280;19885;42.208;24.952;2022-07-23T08:30:48;99938.09;;;31.12;38.06
33554;BME280;19885;42.208;24.952;2022-07-23T08:33:16;99929.97;;;31.00;34.68
33554;BME280;19885;42.208;24.952;2022-07-23T08:35:47;99936.81;;;30.93;36.23
33554;BME280;19885;42.208;24.952;2022-07-23T08:38:15;99924.44;;;30.91;34.60
33554;BME280;19885;42.208;24.952;2022-07-23T08:40:52;99939.28;;;31.42;34.26
33554;BME280;19885;42.208;24.952;2022-07-23T08:43:23;99934.75;;;31.43;34.11
33554;BME280;19885;42.208;24.952;2022-07-23T08:45:52;99927.41;;;31.45;34.28
33554;BME280;19885;42.208;24.952;2022-07-23T08:48:21;99921.00;;;31.35;33.63
33554;BME280;19885;42.208;24.952;2022-07-23T08:50:55;99922.56;;;31.26;31.58
33554;BME280;19885;42.208;24.952;2022-07-23T08:53:22;99923.28;;;31.28;32.59
33554;BME280;19885;42.208;24.952;2022-07-23T08:55:51;99924.44;;;31.37;34.32
33554;BME280;19885;42.208;24.952;2022-07-23T08:58:17;99921.31;;;31.54;33.39
33554;BME280;19885;42.208;24.952;2022-07-23T09:00:44;99926.28;;;31.36;33.14
33554;BME280;19885;42.208;24.952;2022-07-23T09:03:19;99915.44;;;31.93;33.12
33554;BME280;19885;42.208;24.952;2022-07-23T09:05:46;99914.97;;;31.99;31.51
33554;BME280;19885;42.208;24.952;2022-07-23T09:08:15;99915.19;;;32.18;31.09
33554;BME280;19885;42.208;24.952;2022-07-23T09:10:55;99902.09;;;32.68;31.23
33554;BME280;19885;42.208;24.952;2022-07-23T09:16:10;99901.56;;;32.31;29.12
33554;BME280;19885;42.208;24.952;2022-07-23T09:18:56;99911.34;;;32.43;29.35
33554;BME280;19885;42.208;24.952;2022-07-23T09:21:28;99906.31;;;32.50;32.88
33554;BME280;19885;42.208;24.952;2022-07-23T09:26:36;99897.31;;;32.92;28.66
33554;BME280;19885;42.208;24.952;2022-07-23T09:29:24;99896.09;;;32.85;30.00
33554;BME280;19885;42.208;24.952;2022-07-23T09:32:02;99893.06;;;33.10;30.78
33554;BME280;19885;42.208;24.952;2022-07-23T09:34:32;99888.66;;;33.09;29.82
33554;BME280;19885;42.208;24.952;2022-07-23T09:37:12;99884.28;;;33.59;30.98
33554;BME280;19885;42.208;24.952;2022-07-23T09:39:39;99887.97;;;33.37;29.69
33554;BME280;19885;42.208;24.952;2022-07-23T09:42:19;99880.59;;;33.39;29.99
33554;BME280;19885;42.208;24.952;2022-07-23T09:44:47;99880.06;;;33.45;28.98
33554;BME280;19885;42.208;24.952;2022-07-23T09:47:14;99884.69;;;33.85;29.34
33554;BME280;19885;42.208;24.952;2022-07-23T09:49:40;99879.03;;;34.37;29.70
33554;BME280;19885;42.208;24.952;2022-07-23T09:52:07;99871.47;;;34.50;29.37
33554;BME280;19885;42.208;24.952;2022-07-23T09:54:33;99859.56;;;34.53;28.56
33554;BME280;19885;42.208;24.952;2022-07-23T09:57:08;99866.38;;;34.85;29.05
33554;BME280;19885;42.208;24.952;2022-07-23T09:59:37;99867.50;;;34.92;28.90
33554;BME280;19885;42.208;24.952;2022-07-23T10:02:05;99868.66;;;34.99;26.24
33554;BME280;19885;42.208;24.952;2022-07-23T10:04:32;99844.53;;;35.16;26.95
33554;BME280;19885;42.208;24.952;2022-07-23T10:07:00;99852.38;;;34.99;26.53
33554;BME280;19885;42.208;24.952;2022-07-23T10:09:32;99857.53;;;34.83;25.17
33554;BME280;19885;42.208;24.952;2022-07-23T10:12:00;99853.81;;;34.94;26.39
33554;BME280;19885;42.208;24.952;2022-07-23T10:14:32;99846.25;;;34.50;26.79
33554;BME280;19885;42.208;24.952;2022-07-23T10:17:01;99846.28;;;34.69;26.25
33554;BME280;19885;42.208;24.952;2022-07-23T10:19:27;99838.56;;;35.12;25.76
33554;BME280;19885;42.208;24.952;2022-07-23T10:21:57;99842.50;;;35.37;25.73
33554;BME280;19885;42.208;24.952;2022-07-23T10:30:12;99801.47;;;35.03;24.35
33554;BME280;19885;42.208;24.952;2022-07-23T10:35:50;99830.19;;;35.42;24.43
33554;BME280;19885;42.208;24.952;2022-07-23T10:38:24;99816.00;;;35.21;24.49
33554;BME280;19885;42.208;24.952;2022-07-23T10:41:00;99819.03;;;35.55;24.89
33554;BME280;19885;42.208;24.952;2022-07-23T10:43:26;99809.28;;;35.89;23.81
33554;BME280;19885;42.208;24.952;2022-07-23T10:45:52;99808.13;;;36.19;24.53
33554;BME280;19885;42.208;24.952;2022-07-23T10:48:21;99809.69;;;36.39;24.76
33554;BME280;19885;42.208;24.952;2022-07-23T10:59:03;99779.03;;;36.64;22.62
33554;BME280;19885;42.208;24.952;2022-07-23T11:01:38;99787.09;;;36.38;21.80
33554;BME280;19885;42.208;24.952;2022-07-23T11:04:05;99741.72;;;36.13;24.38
33554;BME280;19885;42.208;24.952;2022-07-23T11:09:29;99769.63;;;36.59;23.34
33554;BME280;19885;42.208;24.952;2022-07-23T11:17:23;99772.56;;;36.65;20.76
33554;BME280;19885;42.208;24.952;2022-07-23T11:25:00;99757.19;;;36.74;22.85
33554;BME280;19885;42.208;24.952;2022-07-23T11:30:06;99759.41;;;36.53;23.42
33554;BME280;19885;42.208;24.952;2022-07-23T11:32:39;99764.47;;;36.47;23.39
33554;BME280;19885;42.208;24.952;2022-07-23T11:35:24;99748.88;;;36.93;24.26
33554;BME280;19885;42.208;24.952;2022-07-23T11:37:52;99752.22;;;37.46;23.70
33554;BME280;19885;42.208;24.952;2022-07-23T11:40:20;99751.88;;;37.41;21.54
33554;BME280;19885;42.208;24.952;2022-07-23T11:43:11;99748.75;;;37.70;22.93
33554;BME280;19885;42.208;24.952;2022-07-23T11:49:02;99697.03;;;37.70;22.82
33554;BME280;19885;42.208;24.952;2022-07-23T11:51:28;99732.84;;;37.49;21.40
33554;BME280;19885;42.208;24.952;2022-07-23T11:56:29;99729.03;;;37.34;19.09
33554;BME280;19885;42.208;24.952;2022-07-23T11:59:19;99736.63;;;37.56;20.54
33554;BME280;19885;42.208;24.952;2022-07-23T12:02:01;99724.25;;;37.78;20.45
33554;BME280;19885;42.208;24.952;2022-07-23T12:07:04;99719.75;;;38.11;20.73
33554;BME280;19885;42.208;24.952;2022-07-23T12:15:52;99715.22;;;37.61;17.83
33554;BME280;19885;42.208;24.952;2022-07-23T12:21:35;99701.75;;;38.50;20.57
33554;BME280;19885;42.208;24.952;2022-07-23T12:32:25;99689.31;;;38.23;20.26
33554;BME280;19885;42.208;24.952;2022-07-23T12:38:07;99685.75;;;38.55;19.88
33554;BME280;19885;42.208;24.952;2022-07-23T12:41:10;99676.22;;;38.43;19.54
33554;BME280;19885;42.208;24.952;2022-07-23T12:43:41;99672.09;;;38.15;20.14
33554;BME280;19885;42.208;24.952;2022-07-23T12:46:38;99665.66;;;38.48;21.39
33554;BME280;19885;42.208;24.952;2022-07-23T12:52:16;99644.22;;;38.29;19.52
33554;BME280;19885;42.208;24.952;2022-07-23T13:04:29;99645.38;;;38.50;19.84
33554;BME280;19885;42.208;24.952;2022-07-23T13:06:58;99646.31;;;38.90;21.31
33554;BME280;19885;42.208;24.952;2022-07-23T13:09:27;99647.50;;;38.87;18.38
33554;BME280;19885;42.208;24.952;2022-07-23T13:12:30;99640.75;;;38.59;18.45
33554;BME280;19885;42.208;24.952;2022-07-23T13:14:58;99639.63;;;39.00;19.91
33554;BME280;19885;42.208;24.952;2022-07-23T13:17:25;99640.19;;;39.35;20.08
33554;BME280;19885;42.208;24.952;2022-07-23T13:20:24;99630.94;;;39.44;18.12
33554;BME280;19885;42.208;24.952;2022-07-23T13:22:50;99637.03;;;39.15;18.00
33554;BME280;19885;42.208;24.952;2022-07-23T13:25:52;99632.28;;;39.01;19.10
33554;BME280;19885;42.208;24.952;2022-07-23T13:31:24;99563.44;;;38.44;17.82
33554;BME280;19885;42.208;24.952;2022-07-23T13:33:58;99628.41;;;38.87;19.91
33554;BME280;19885;42.208;24.952;2022-07-23T13:39:39;99625.22;;;38.76;18.58
33554;BME280;19885;42.208;24.952;2022-07-23T13:45:10;99624.88;;;38.63;18.54
33554;BME280;19885;42.208;24.952;2022-07-23T13:47:36;99621.00;;;38.57;17.22
33554;BME280;19885;42.208;24.952;2022-07-23T13:50:02;99623.72;;;38.57;18.92
33554;BME280;19885;42.208;24.952;2022-07-23T13:52:28;99614.19;;;38.53;19.03
33554;BME280;19885;42.208;24.952;2022-07-23T13:54:54;99630.41;;;39.09;18.13
33554;BME280;19885;42.208;24.952;2022-07-23T13:57:19;99627.88;;;39.69;19.35
33554;BME280;19885;42.208;24.952;2022-07-23T13:59:44;99605.25;;;39.61;19.37
33554;BME280;19885;42.208;24.952;2022-07-23T14:02:15;99605.91;;;39.63;17.53
33554;BME280;19885;42.208;24.952;2022-07-23T14:04:42;99605.75;;;39.56;17.43
33554;BME280;19885;42.208;24.952;2022-07-23T14:07:07;99623.44;;;38.99;17.36
33554;BME280;19885;42.208;24.952;2022-07-23T14:09:32;99616.50;;;38.88;19.79
33554;BME280;19885;42.208;24.952;2022-07-23T14:11:59;99618.44;;;39.10;18.96
33554;BME280;19885;42.208;24.952;2022-07-23T14:14:25;99618.06;;;39.52;19.44
33554;BME280;19885;42.208;24.952;2022-07-23T14:16:50;99617.56;;;39.49;19.72
33554;BME280;19885;42.208;24.952;2022-07-23T14:19:16;99606.38;;;39.44;18.94
33554;BME280;19885;42.208;24.952;2022-07-23T14:21:42;99612.03;;;39.65;20.18
33554;BME280;19885;42.208;24.952;2022-07-23T14:24:08;99609.13;;;39.89;18.40